Etusivu
METAR-TAF:

METAR-TAF

Lentoasemat :

Førde, Norja

Leveyspiiri: 61-27N, Pituuspiiri: 005-52E, korkeus merenpinnasta: 150 m

Tämänhetkinen sää

Tämä raportti tehtiin 22 minuuttia sitten, kello 18.20 UTC
Tuuli 5 kn koillisesta
Lämpötila 11°C
Kosteus 82%
Ilmanpaine 1022 hPa
Näkyvyys 10 km tai enemmän
Hajanaisia pilviä 3000 ft:n korkeudessa
Hajonneita pilviä 4000 ft:n korkeudessa
heikkoa sadetta

METAR: ENBL 221820Z 05005KT 9999 -RA SCT030 BKN040 11/08 Q1022

Aika: 20:42 (18:42 UTC)


TAF: puuttuu

Säähavainnot ja -ennusteet yli 4000 lentoasemalta (METAR- ja TAF-raportit).

Käytössä olevat sääasemat on merkitty karttaan keltaisilla ja punaisilla pisteillä.

Aseta hiiri pisteen päälle nähdäksesi sääaseman nimen.

Klikkaa sitten nähdäksesi säähavainnot ja -ennusteet.

Kartan vaihtaminen: klikkaa mustalla rastilla varustettuja vihreitä pisteitä, niin voit zoomata sisään; viivalla varustettua vihreää pistettä, niin voit zoomata ulos tai vihreitä nuolia, niin pääset viereisille kartoille.


METAR-TAF: